首页
METAR-TAF:

METAR-TAF

机场 :

菲利普戈尔德森国际机场

伯利兹, 伯利兹

纬度: 17-32N, 经度: 088-18W, 海拔: 5米

当前天气观测

该预报发布于4小时和28分钟前的00:00 UTC
风速5节,风向
温度 27°C
湿度 89%
气压 1015 hPa
能见度10公里或以上
少量云层高于2300英尺

METAR: MZBZ 210000Z 09005KT 9999 FEW023 27/25 A3000 Q1015 NOSIG

时间: 22:28 (04:28 UTC)

预报

该预报发布于7小时和28分钟前的21:00 UTC
预报有效从21日的 00点(UTC)到 21日的 24点(UTC)
风速7节,风向东转东北
能见度10公里或以上
散云层高于2200英尺
成为
从 21日的 04点(UTC)到 21日的 06点(UTC)
风速3节,风向多变

TAF: MZBZ 202100Z 2100/2124 07007KT 9999 SCT022 BECMG 2104/2106 VRB03KT

超过4000个机场的气象观测和天气预报(METAR&TAF报告)。

可查询的气象台以黄色和红色小点在地图上表示。

将鼠标移到小点上方,可查看气象台名称。

然后点击查看天气观测和预报。

如需切换地图:点击带黑十字的绿色按钮放大地图;点击带横线的绿色按钮缩小地图;或者点击绿色箭头查看邻近地区的地图。


METAR-TAF: